Time;durP1;ratioP1;P1;durP2;ratioP2;P2;SDS_P1;SDS_P2;PMS_P1;PMS_P2;Temp;Humidity;BMP_temperature;BMP_pressure;BME280_temperature;BME280_humidity;BME280_pressure;Samples;Min_cycle;Max_cycle;Signal;HPM_P1;HPM_P2
2022/01/08 00:00:23;;;;;;;;;;;3.30;99.90;;;;;;5006352;28;20230;-69
2022/01/08 00:02:51;;;;;;;;;;;3.30;99.90;;;;;;5005473;28;21128;-71
2022/01/08 00:05:20;;;;;;;;;;;3.30;99.90;;;;;;5005409;28;20266;-72
2022/01/08 00:07:47;;;;;;;;;;;3.20;99.90;;;;;;5004905;28;20068;-72
2022/01/08 00:10:14;;;;;;;;;;;3.30;99.90;;;;;;5004876;28;21240;-71
2022/01/08 00:12:41;;;;;;;;;;;3.30;99.90;;;;;;5003289;28;20066;-71
2022/01/08 00:15:09;;;;;;;;;;;3.20;99.90;;;;;;5004840;28;20051;-71
2022/01/08 00:17:36;;;;;;;;;;;3.20;99.90;;;;;;5003765;28;20069;-73
2022/01/08 00:20:04;;;;;;;;;;;3.20;99.90;;;;;;5004903;28;20088;-72
2022/01/08 00:22:32;;;;;;;;;;;3.20;99.90;;;;;;5003858;28;20088;-72
2022/01/08 00:25:00;;;;;;;;;;;3.20;99.90;;;;;;5005526;28;20060;-71
2022/01/08 00:27:27;;;;;;;;;;;3.20;99.90;;;;;;5004548;28;20060;-71
2022/01/08 00:29:54;;;;;;;;;;;3.20;99.90;;;;;;5005574;28;20084;-71
2022/01/08 00:32:22;;;;;;;;;;;3.10;99.90;;;;;;5005140;28;21200;-72
2022/01/08 00:34:49;;;;;;;;;;;3.10;99.90;;;;;;5005483;28;21087;-72
2022/01/08 00:37:16;;;;;;;;;;;3.10;99.90;;;;;;5005219;28;20088;-71
2022/01/08 00:39:47;;;;;;;;;;;3.10;99.90;;;;;;5004643;28;20171;-72
2022/01/08 00:42:14;;;;;;;;;;;3.10;99.90;;;;;;5004671;28;20191;-71
2022/01/08 00:44:41;;;;;;;;;;;3.10;99.90;;;;;;5005009;28;20223;-72
2022/01/08 00:47:09;;;;;;;;;;;3.10;99.90;;;;;;5004294;28;20060;-72
2022/01/08 00:49:37;;;;;;;;;;;3.10;99.90;;;;;;5003975;28;21135;-72
2022/01/08 00:52:04;;;;;;;;;;;3.00;99.90;;;;;;5005011;28;20162;-72
2022/01/08 00:54:31;;;;;;;;;;;3.10;99.90;;;;;;5004659;28;20059;-71
2022/01/08 00:57:00;;;;;;;;;;;3.00;99.90;;;;;;5004310;28;21051;-72
2022/01/08 00:59:28;;;;;;;;;;;3.00;99.90;;;;;;5004520;28;20060;-72
2022/01/08 01:01:55;;;;;;;;;;;2.90;99.90;;;;;;5003637;28;20078;-72
2022/01/08 01:04:22;;;;;;;;;;;2.90;99.90;;;;;;5004706;28;20154;-71
2022/01/08 01:06:49;;;;;;;;;;;3.00;99.90;;;;;;5004372;28;20060;-71
2022/01/08 01:09:16;;;;;;;;;;;2.90;99.90;;;;;;5003974;28;20157;-71
2022/01/08 01:11:43;;;;;;;;;;;2.90;99.90;;;;;;5004836;28;20099;-72
2022/01/08 01:14:12;;;;;;;;;;;2.80;99.90;;;;;;5005033;28;20205;-72
2022/01/08 01:16:39;;;;;;;;;;;2.70;99.90;;;;;;5004735;28;21100;-70
2022/01/08 01:19:06;;;;;;;;;;;2.70;99.90;;;;;;5004545;28;20060;-72
2022/01/08 01:21:33;;;;;;;;;;;2.50;99.90;;;;;;5004358;28;20091;-72
2022/01/08 01:24:07;;;;;;;;;;;2.40;99.90;;;;;;5003879;28;21149;-72
2022/01/08 01:26:35;;;;;;;;;;;2.30;99.90;;;;;;5003946;28;20057;-72
2022/01/08 01:29:23;;;;;;;;;;;2.20;99.90;;;;;;5003493;28;20256;-71
2022/01/08 01:43:22;;;;;;;;;;;1.80;99.90;;;;;;5003812;28;20057;-71
2022/01/08 01:48:35;;;;;;;;;;;1.70;99.90;;;;;;5003395;28;21156;-71
2022/01/08 01:51:02;;;;;;;;;;;1.70;99.90;;;;;;5003715;28;20090;-71
2022/01/08 01:53:29;;;;;;;;;;;1.70;99.90;;;;;;5003691;28;20113;-72
2022/01/08 01:55:56;;;;;;;;;;;1.70;99.90;;;;;;5003508;28;20060;-71
2022/01/08 01:58:23;;;;;;;;;;;1.70;99.90;;;;;;5002630;28;20186;-71
2022/01/08 02:00:51;;;;;;;;;;;1.60;99.90;;;;;;5004845;28;20088;-71
2022/01/08 02:03:18;;;;;;;;;;;1.50;99.90;;;;;;5003209;28;21188;-72
2022/01/08 02:05:47;;;;;;;;;;;1.50;99.90;;;;;;5003779;28;20060;-71
2022/01/08 02:08:14;;;;;;;;;;;1.50;99.90;;;;;;5002919;28;20066;-71
2022/01/08 02:10:42;;;;;;;;;;;1.40;99.90;;;;;;5003470;28;21008;-70
2022/01/08 02:13:09;;;;;;;;;;;1.40;99.90;;;;;;5002664;28;20068;-71
2022/01/08 02:15:36;;;;;;;;;;;1.30;99.90;;;;;;5003343;28;21010;-71
2022/01/08 02:18:04;;;;;;;;;;;1.30;99.90;;;;;;5002741;28;20058;-71
2022/01/08 02:20:33;;;;;;;;;;;1.30;99.90;;;;;;5002999;28;20051;-71
2022/01/08 02:23:00;;;;;;;;;;;1.30;99.90;;;;;;5003273;28;20140;-70
2022/01/08 02:25:27;;;;;;;;;;;1.20;99.90;;;;;;4998586;28;20097;-71
2022/01/08 02:27:54;;;;;;;;;;;1.20;99.90;;;;;;5001703;28;21154;-71
2022/01/08 02:30:21;;;;;;;;;;;1.20;99.90;;;;;;5003570;28;20060;-71
2022/01/08 02:32:49;;;;;;;;;;;1.20;99.90;;;;;;5003647;28;20061;-71
2022/01/08 02:35:21;;;;;;;;;;;1.20;99.90;;;;;;5003368;28;20068;-71
2022/01/08 02:37:49;;;;;;;;;;;1.20;99.90;;;;;;5002065;28;20060;-69
2022/01/08 02:40:18;;;;;;;;;;;1.30;99.90;;;;;;5003302;28;20170;-71
2022/01/08 02:42:51;;;;;;;;;;;1.20;99.90;;;;;;5002318;28;20051;-71
2022/01/08 02:45:19;;;;;;;;;;;1.10;99.90;;;;;;5003425;28;20051;-71
2022/01/08 02:47:46;;;;;;;;;;;1.10;99.90;;;;;;5002644;28;20060;-72
2022/01/08 02:50:14;;;;;;;;;;;1.20;99.90;;;;;;5003391;28;20087;-71
2022/01/08 02:52:41;;;;;;;;;;;1.20;99.90;;;;;;5003439;28;20162;-71
2022/01/08 02:55:11;;;;;;;;;;;1.20;99.90;;;;;;5003531;28;20149;-72
2022/01/08 02:57:38;;;;;;;;;;;1.10;99.90;;;;;;5002702;28;20060;-71
2022/01/08 03:00:06;;;;;;;;;;;1.20;99.90;;;;;;5001900;28;20088;-71
2022/01/08 03:02:34;;;;;;;;;;;1.20;99.90;;;;;;5002358;28;20067;-71
2022/01/08 03:05:01;;;;;;;;;;;1.20;99.90;;;;;;5003639;28;21133;-72
2022/01/08 03:07:28;;;;;;;;;;;1.30;99.90;;;;;;5003300;28;20133;-71
2022/01/08 03:09:58;;;;;;;;;;;1.30;99.90;;;;;;5028258;28;20085;-73
2022/01/08 03:12:28;;;;;;;;;;;1.30;99.90;;;;;;5029389;28;20060;-71
2022/01/08 03:14:55;;;;;;;;;;;1.20;99.90;;;;;;5029333;28;20067;-71
2022/01/08 03:17:22;;;;;;;;;;;1.20;99.90;;;;;;5012551;28;20060;-70
2022/01/08 03:19:52;;;;;;;;;;;1.20;99.90;;;;;;5003065;28;20073;-71
2022/01/08 03:22:19;;;;;;;;;;;1.20;99.90;;;;;;5003230;28;20069;-70
2022/01/08 03:24:46;;;;;;;;;;;1.20;99.90;;;;;;5003500;28;20125;-71
2022/01/08 03:27:14;;;;;;;;;;;1.20;99.90;;;;;;5004261;28;20125;-71
2022/01/08 03:29:42;;;;;;;;;;;1.20;99.90;;;;;;5006111;28;21253;-71
2022/01/08 03:32:09;;;;;;;;;;;1.20;99.90;;;;;;5006848;28;20161;-68
2022/01/08 03:34:37;;;;;;;;;;;1.20;99.90;;;;;;5006611;28;20060;-71
2022/01/08 03:37:04;;;;;;;;;;;1.30;99.90;;;;;;5006711;28;20140;-71
2022/01/08 03:39:31;;;;;;;;;;;1.30;99.90;;;;;;5007437;28;21277;-70
2022/01/08 03:41:58;;;;;;;;;;;1.40;99.90;;;;;;5005686;28;20069;-71
2022/01/08 03:44:25;;;;;;;;;;;1.40;99.90;;;;;;5007444;28;20065;-71
2022/01/08 03:47:00;;;;;;;;;;;1.40;99.90;;;;;;5006748;28;20067;-71
2022/01/08 03:49:28;;;;;;;;;;;1.40;99.90;;;;;;5006485;28;20059;-71
2022/01/08 03:51:56;;;;;;;;;;;1.50;99.90;;;;;;5006005;28;21126;-70
2022/01/08 03:54:24;;;;;;;;;;;1.60;99.90;;;;;;5005646;28;20052;-72
2022/01/08 03:56:51;;;;;;;;;;;1.70;99.90;;;;;;5007136;28;20074;-70
2022/01/08 03:59:18;;;;;;;;;;;1.70;99.90;;;;;;5006454;28;21168;-71
2022/01/08 04:01:45;;;;;;;;;;;1.70;99.90;;;;;;5006166;28;20057;-70
2022/01/08 04:04:14;;;;;;;;;;;1.70;99.90;;;;;;5006113;28;20088;-71
2022/01/08 04:06:41;;;;;;;;;;;1.70;99.90;;;;;;5006250;28;20051;-71
2022/01/08 04:09:08;;;;;;;;;;;1.70;99.90;;;;;;5003631;28;20073;-71
2022/01/08 04:11:35;;;;;;;;;;;1.60;99.90;;;;;;5003130;28;20066;-71
2022/01/08 04:14:02;;;;;;;;;;;1.60;99.90;;;;;;5004354;28;20060;-71
2022/01/08 04:16:33;;;;;;;;;;;1.60;99.90;;;;;;5006175;28;20141;-71
2022/01/08 04:19:01;;;;;;;;;;;1.50;99.90;;;;;;5005579;28;20084;-71
2022/01/08 04:24:16;;;;;;;;;;;1.40;99.90;;;;;;4996943;28;20165;-71
2022/01/08 04:26:43;;;;;;;;;;;1.40;99.90;;;;;;5004976;28;20060;-71
2022/01/08 04:29:11;;;;;;;;;;;1.30;99.90;;;;;;5005456;28;21151;-71
2022/01/08 04:31:38;;;;;;;;;;;1.20;99.90;;;;;;5005479;28;20095;-71
2022/01/08 04:34:05;;;;;;;;;;;1.20;99.90;;;;;;5004666;28;20139;-71
2022/01/08 04:36:34;;;;;;;;;;;1.10;99.90;;;;;;5005824;28;20060;-69
2022/01/08 04:39:01;;;;;;;;;;;1.10;99.90;;;;;;5004460;28;20068;-71
2022/01/08 04:41:28;;;;;;;;;;;1.00;99.90;;;;;;5005125;28;21162;-71
2022/01/08 04:43:55;;;;;;;;;;;1.00;99.90;;;;;;5005013;28;20075;-71
2022/01/08 04:46:22;;;;;;;;;;;1.00;99.90;;;;;;5005234;28;20051;-71
2022/01/08 04:48:49;;;;;;;;;;;1.00;99.90;;;;;;5004748;28;20052;-71
2022/01/08 04:51:17;;;;;;;;;;;1.10;99.90;;;;;;5005375;28;21150;-71
2022/01/08 04:53:45;;;;;;;;;;;1.00;99.90;;;;;;5004854;28;20059;-71
2022/01/08 04:56:13;;;;;;;;;;;1.00;99.90;;;;;;5004373;28;21056;-71
2022/01/08 04:58:40;;;;;;;;;;;0.90;99.90;;;;;;5004318;28;20161;-71
2022/01/08 05:01:12;;;;;;;;;;;0.80;99.90;;;;;;5004214;28;21088;-71
2022/01/08 05:03:39;;;;;;;;;;;0.80;99.90;;;;;;5004759;28;20317;-71
2022/01/08 05:06:07;;;;;;;;;;;0.70;99.90;;;;;;5005613;28;20074;-71
2022/01/08 05:08:34;;;;;;;;;;;0.70;99.90;;;;;;5004265;28;20161;-72
2022/01/08 05:11:03;;;;;;;;;;;0.70;99.90;;;;;;5004809;28;20606;-71
2022/01/08 05:13:30;;;;;;;;;;;0.80;99.90;;;;;;5004538;28;21146;-71
2022/01/08 05:15:58;;;;;;;;;;;0.80;99.90;;;;;;5003882;28;20149;-71
2022/01/08 05:18:25;;;;;;;;;;;0.80;99.90;;;;;;5004594;28;21080;-71
2022/01/08 05:20:57;;;;;;;;;;;0.90;99.90;;;;;;5004928;28;20179;-71
2022/01/08 05:23:24;;;;;;;;;;;0.90;99.90;;;;;;5005201;28;20052;-71
2022/01/08 05:25:53;;;;;;;;;;;0.90;99.90;;;;;;5004810;28;20067;-71
2022/01/08 05:28:21;;;;;;;;;;;1.00;99.90;;;;;;5004352;28;21227;-72
2022/01/08 05:30:48;;;;;;;;;;;1.00;99.90;;;;;;5005143;28;20062;-71
2022/01/08 05:33:15;;;;;;;;;;;1.00;99.90;;;;;;5004995;28;20075;-71
2022/01/08 05:35:44;;;;;;;;;;;1.00;99.90;;;;;;4998954;28;20051;-72
2022/01/08 05:38:11;;;;;;;;;;;1.00;99.90;;;;;;5003066;28;21133;-71
2022/01/08 05:40:38;;;;;;;;;;;0.90;99.90;;;;;;5005252;28;21014;-71
2022/01/08 05:43:05;;;;;;;;;;;0.90;99.90;;;;;;5004957;28;20059;-71
2022/01/08 05:45:34;;;;;;;;;;;0.80;99.90;;;;;;5004522;28;20074;-69
2022/01/08 05:48:01;;;;;;;;;;;0.90;99.90;;;;;;5003649;28;20054;-71
2022/01/08 05:50:28;;;;;;;;;;;0.80;99.90;;;;;;5003594;28;21045;-71
2022/01/08 05:52:55;;;;;;;;;;;0.80;99.90;;;;;;5004164;28;20052;-71
2022/01/08 05:55:23;;;;;;;;;;;0.80;99.90;;;;;;5004789;28;20093;-71
2022/01/08 05:57:50;;;;;;;;;;;0.90;99.90;;;;;;5004583;28;21059;-71
2022/01/08 06:00:25;;;;;;;;;;;0.90;99.90;;;;;;5004205;28;20060;-71
2022/01/08 06:02:54;;;;;;;;;;;0.90;99.90;;;;;;5004779;28;20076;-71
2022/01/08 06:05:21;;;;;;;;;;;1.00;99.90;;;;;;5000835;28;20052;-71
2022/01/08 06:07:48;;;;;;;;;;;1.00;99.90;;;;;;5005538;28;20068;-71
2022/01/08 06:10:15;;;;;;;;;;;1.10;99.90;;;;;;5026123;28;20052;-71
2022/01/08 06:12:43;;;;;;;;;;;1.00;99.90;;;;;;5024315;28;20064;-70
2022/01/08 06:15:11;;;;;;;;;;;1.00;99.90;;;;;;5024094;28;20065;-71
2022/01/08 06:17:38;;;;;;;;;;;1.10;99.90;;;;;;5023081;28;20052;-71
2022/01/08 06:20:07;;;;;;;;;;;1.10;99.90;;;;;;5014998;28;20060;-71
2022/01/08 06:22:35;;;;;;;;;;;1.00;99.90;;;;;;5003598;28;21134;-71
2022/01/08 06:25:02;;;;;;;;;;;1.10;99.90;;;;;;5003747;28;21118;-70
2022/01/08 06:27:29;;;;;;;;;;;1.10;99.90;;;;;;5004698;28;21133;-71
2022/01/08 06:29:56;;;;;;;;;;;1.10;99.90;;;;;;5003374;28;20132;-71
2022/01/08 06:32:23;;;;;;;;;;;1.10;99.90;;;;;;5003732;28;20077;-71
2022/01/08 06:34:50;;;;;;;;;;;1.20;99.90;;;;;;5005223;28;20067;-71
2022/01/08 06:37:19;;;;;;;;;;;1.20;99.90;;;;;;5004711;28;20092;-71
2022/01/08 06:39:48;;;;;;;;;;;1.20;99.90;;;;;;5004479;28;20068;-71
2022/01/08 06:42:15;;;;;;;;;;;1.20;99.90;;;;;;5004769;28;21145;-71
2022/01/08 06:44:42;;;;;;;;;;;1.30;99.90;;;;;;5005440;28;21134;-71
2022/01/08 06:47:10;;;;;;;;;;;1.30;99.90;;;;;;5004937;28;20060;-71
2022/01/08 06:49:37;;;;;;;;;;;1.20;99.90;;;;;;5004087;28;20061;-71
2022/01/08 06:52:04;;;;;;;;;;;1.30;99.90;;;;;;5004449;28;20150;-71
2022/01/08 06:54:33;;;;;;;;;;;1.30;99.90;;;;;;5003114;28;20067;-71
2022/01/08 06:57:00;;;;;;;;;;;1.30;99.90;;;;;;5003304;28;20060;-71
2022/01/08 06:59:27;;;;;;;;;;;1.40;99.90;;;;;;5002371;28;21120;-71
2022/01/08 07:01:55;;;;;;;;;;;1.30;99.90;;;;;;5004955;28;20141;-71
2022/01/08 07:04:22;;;;;;;;;;;1.30;99.90;;;;;;5007260;28;20073;-72
2022/01/08 07:06:49;;;;;;;;;;;1.30;99.90;;;;;;5006824;28;20051;-68
2022/01/08 07:09:16;;;;;;;;;;;1.30;99.90;;;;;;5006024;28;20172;-72
2022/01/08 07:11:45;;;;;;;;;;;1.30;99.90;;;;;;5019976;28;20113;-71
2022/01/08 07:14:12;;;;;;;;;;;1.40;99.90;;;;;;5026436;28;21002;-71
2022/01/08 07:16:39;;;;;;;;;;;1.40;99.90;;;;;;5026790;28;20121;-73
2022/01/08 07:19:06;;;;;;;;;;;1.40;99.90;;;;;;5025664;28;21079;-72
2022/01/08 07:21:33;;;;;;;;;;;1.40;99.90;;;;;;5025996;28;20068;-71
2022/01/08 07:24:00;;;;;;;;;;;1.40;99.90;;;;;;5026523;28;20160;-71
2022/01/08 07:26:28;;;;;;;;;;;1.50;99.90;;;;;;5026960;28;20051;-71
2022/01/08 07:28:56;;;;;;;;;;;1.60;99.90;;;;;;5025492;28;20060;-71
2022/01/08 07:31:23;;;;;;;;;;;1.70;99.90;;;;;;5026901;28;20098;-71
2022/01/08 07:33:51;;;;;;;;;;;1.70;99.90;;;;;;5025448;28;20068;-71
2022/01/08 07:36:19;;;;;;;;;;;1.70;99.90;;;;;;5025811;28;20132;-72
2022/01/08 07:38:46;;;;;;;;;;;1.80;99.90;;;;;;5025571;28;21136;-71
2022/01/08 07:41:13;;;;;;;;;;;1.80;99.90;;;;;;5026610;28;20066;-71
2022/01/08 07:43:40;;;;;;;;;;;1.80;99.90;;;;;;5026027;28;21242;-71
2022/01/08 07:46:09;;;;;;;;;;;1.80;99.90;;;;;;5027078;28;20059;-71
2022/01/08 07:48:36;;;;;;;;;;;1.80;99.90;;;;;;5025428;28;20051;-71
2022/01/08 07:51:03;;;;;;;;;;;1.80;99.90;;;;;;5026782;28;20091;-71
2022/01/08 07:53:30;;;;;;;;;;;1.70;99.90;;;;;;5026159;28;20149;-71
2022/01/08 07:55:58;;;;;;;;;;;1.70;99.90;;;;;;5026949;28;20158;-70
2022/01/08 07:58:25;;;;;;;;;;;1.80;99.90;;;;;;5025801;28;20059;-71
2022/01/08 08:00:53;;;;;;;;;;;1.80;99.90;;;;;;5025886;28;20077;-71
2022/01/08 08:03:22;;;;;;;;;;;1.80;99.90;;;;;;5024671;28;20152;-68
2022/01/08 08:05:49;;;;;;;;;;;1.80;99.90;;;;;;5026018;28;20080;-71
2022/01/08 08:08:17;;;;;;;;;;;1.80;99.90;;;;;;5024831;28;21072;-71
2022/01/08 08:10:44;;;;;;;;;;;1.80;99.90;;;;;;5020749;28;20068;-70
2022/01/08 08:13:11;;;;;;;;;;;1.90;99.90;;;;;;5004626;28;21090;-71
2022/01/08 08:15:38;;;;;;;;;;;2.00;99.90;;;;;;5005190;28;20073;-71
2022/01/08 08:18:06;;;;;;;;;;;2.10;99.90;;;;;;5005291;28;20068;-70
2022/01/08 08:20:34;;;;;;;;;;;2.20;99.90;;;;;;5005782;28;20060;-71
2022/01/08 08:23:01;;;;;;;;;;;2.20;99.90;;;;;;5004912;28;20149;-71
2022/01/08 08:25:29;;;;;;;;;;;2.30;99.90;;;;;;5005736;28;20061;-71
2022/01/08 08:27:56;;;;;;;;;;;2.30;99.90;;;;;;5004828;28;20052;-71
2022/01/08 08:30:23;;;;;;;;;;;2.40;99.90;;;;;;5005423;28;21160;-71
2022/01/08 08:32:50;;;;;;;;;;;2.40;99.90;;;;;;5006013;28;20169;-71
2022/01/08 08:35:18;;;;;;;;;;;2.50;99.90;;;;;;5006626;28;20059;-71
2022/01/08 08:37:47;;;;;;;;;;;2.40;99.90;;;;;;5005461;28;20052;-71
2022/01/08 08:40:14;;;;;;;;;;;2.50;99.90;;;;;;5005365;28;20082;-71
2022/01/08 08:42:42;;;;;;;;;;;2.50;99.90;;;;;;5005041;28;20117;-72
2022/01/08 08:45:09;;;;;;;;;;;2.50;99.90;;;;;;5004984;28;20076;-72
2022/01/08 08:47:38;;;;;;;;;;;2.60;99.90;;;;;;5005029;28;21193;-72
2022/01/08 08:50:07;;;;;;;;;;;2.50;99.90;;;;;;5005279;28;20253;-72
2022/01/08 08:52:34;;;;;;;;;;;2.60;99.90;;;;;;5005703;28;20084;-68
2022/01/08 08:55:03;;;;;;;;;;;2.60;99.90;;;;;;5006026;28;20060;-71
2022/01/08 08:57:31;;;;;;;;;;;2.60;99.90;;;;;;5004679;28;20059;-72
2022/01/08 08:59:58;;;;;;;;;;;2.70;99.90;;;;;;5004765;28;20152;-72
2022/01/08 09:02:25;;;;;;;;;;;2.70;99.90;;;;;;5004017;28;20221;-71
2022/01/08 09:04:53;;;;;;;;;;;2.70;99.90;;;;;;5005012;28;20156;-71
2022/01/08 09:07:20;;;;;;;;;;;2.70;99.90;;;;;;5004711;28;20214;-71
2022/01/08 09:09:47;;;;;;;;;;;2.70;99.90;;;;;;5003745;28;20084;-69
2022/01/08 09:12:16;;;;;;;;;;;2.70;99.90;;;;;;5021515;28;20068;-70
2022/01/08 09:14:43;;;;;;;;;;;2.70;99.90;;;;;;5024415;28;20081;-70
2022/01/08 09:17:11;;;;;;;;;;;2.70;99.90;;;;;;5024711;28;21129;-70
2022/01/08 09:19:38;;;;;;;;;;;2.80;99.90;;;;;;5024376;28;20051;-71
2022/01/08 09:22:06;;;;;;;;;;;2.80;99.90;;;;;;5023931;28;20068;-70
2022/01/08 09:24:33;;;;;;;;;;;2.80;99.90;;;;;;5022947;28;21079;-70
2022/01/08 09:27:00;;;;;;;;;;;2.80;99.90;;;;;;5018819;28;20179;-70
2022/01/08 09:29:29;;;;;;;;;;;2.80;99.90;;;;;;5017104;28;20171;-71
2022/01/08 09:31:56;;;;;;;;;;;2.80;99.90;;;;;;5004925;28;20084;-70
2022/01/08 09:34:23;;;;;;;;;;;2.80;99.90;;;;;;5003542;28;20060;-69
2022/01/08 09:36:50;;;;;;;;;;;2.80;99.90;;;;;;5003300;28;20068;-70
2022/01/08 09:39:18;;;;;;;;;;;2.90;99.90;;;;;;5003128;28;20114;-70
2022/01/08 09:41:45;;;;;;;;;;;2.90;99.90;;;;;;5003250;28;20090;-69
2022/01/08 09:44:12;;;;;;;;;;;2.90;99.90;;;;;;5004408;28;20060;-70
2022/01/08 09:46:41;;;;;;;;;;;3.00;99.90;;;;;;5004077;28;20273;-69
2022/01/08 09:49:08;;;;;;;;;;;3.10;99.90;;;;;;5004067;28;21096;-70
2022/01/08 09:51:36;;;;;;;;;;;3.10;99.90;;;;;;5003456;28;20051;-69
2022/01/08 09:54:03;;;;;;;;;;;3.10;99.90;;;;;;5003652;28;20080;-69
2022/01/08 09:56:32;;;;;;;;;;;3.20;99.90;;;;;;5003977;28;20053;-69
2022/01/08 09:59:00;;;;;;;;;;;3.20;99.90;;;;;;5003229;28;20068;-68
2022/01/08 10:01:28;;;;;;;;;;;3.30;99.90;;;;;;5003439;28;20186;-69
2022/01/08 10:03:58;;;;;;;;;;;3.30;99.90;;;;;;5003874;28;20086;-69
2022/01/08 10:06:26;;;;;;;;;;;3.40;99.90;;;;;;5004511;28;20141;-67
2022/01/08 10:08:53;;;;;;;;;;;3.40;99.90;;;;;;5003061;28;20084;-69
2022/01/08 10:11:21;;;;;;;;;;;3.40;99.90;;;;;;4999970;28;20085;-68
2022/01/08 10:13:52;;;;;;;;;;;3.50;99.90;;;;;;5008120;28;21097;-69
2022/01/08 10:19:17;;;;;;;;;;;3.60;99.90;;;;;;4999308;28;20047;-69
2022/01/08 10:21:45;;;;;;;;;;;3.60;99.90;;;;;;4998146;28;20179;-68
2022/01/08 10:24:12;;;;;;;;;;;3.60;99.90;;;;;;5003996;28;21119;-70
2022/01/08 10:26:39;;;;;;;;;;;3.60;99.90;;;;;;5003844;28;20084;-69
2022/01/08 10:29:08;;;;;;;;;;;3.50;99.90;;;;;;5003907;28;21073;-71
2022/01/08 10:31:39;;;;;;;;;;;3.50;99.90;;;;;;5004362;28;20149;-70
2022/01/08 10:34:08;;;;;;;;;;;3.50;99.90;;;;;;5003920;28;20052;-70
2022/01/08 10:36:36;;;;;;;;;;;3.60;99.90;;;;;;5002991;28;20087;-70
2022/01/08 10:39:04;;;;;;;;;;;3.60;99.90;;;;;;5003250;28;20067;-70
2022/01/08 10:41:31;;;;;;;;;;;3.60;99.90;;;;;;5003617;28;20063;-70
2022/01/08 10:44:06;;;;;;;;;;;3.70;99.90;;;;;;5002564;28;20059;-70
2022/01/08 10:46:34;;;;;;;;;;;3.70;99.90;;;;;;5001423;28;21204;-70
2022/01/08 10:49:01;;;;;;;;;;;3.80;99.90;;;;;;4995743;28;20084;-71
2022/01/08 10:51:34;;;;;;;;;;;3.90;99.90;;;;;;4995888;28;20161;-70
2022/01/08 10:54:06;;;;;;;;;;;4.00;99.90;;;;;;5016985;28;20069;-71
2022/01/08 10:56:35;;;;;;;;;;;4.00;99.90;;;;;;5014781;28;20076;-69
2022/01/08 10:59:04;;;;;;;;;;;4.00;99.90;;;;;;5018633;28;20076;-71
2022/01/08 11:01:42;;;;;;;;;;;4.00;99.90;;;;;;4997835;28;21093;-70
2022/01/08 11:04:10;;;;;;;;;;;4.10;99.90;;;;;;5002426;28;20242;-70
2022/01/08 11:06:49;;;;;;;;;;;4.20;99.90;;;;;;5018228;28;20101;-70
2022/01/08 11:09:16;;;;;;;;;;;4.20;99.90;;;;;;4997048;28;20067;-71
2022/01/08 11:11:44;;;;;;;;;;;4.20;99.90;;;;;;4995969;28;20109;-71
2022/01/08 11:14:21;;;;;;;;;;;4.30;99.90;;;;;;4999776;28;20194;-70
2022/01/08 11:16:50;;;;;;;;;;;4.30;99.90;;;;;;4992718;28;20067;-70
2022/01/08 11:19:18;;;;;;;;;;;4.30;99.90;;;;;;5001545;28;20153;-70
2022/01/08 11:21:48;;;;;;;;;;;4.30;99.90;;;;;;5001430;28;21038;-71
2022/01/08 11:24:16;;;;;;;;;;;4.30;99.90;;;;;;5000261;28;20060;-71
2022/01/08 11:26:44;;;;;;;;;;;4.40;99.90;;;;;;5000944;28;20060;-71
2022/01/08 11:29:12;;;;;;;;;;;4.50;99.90;;;;;;5004230;28;20196;-71
2022/01/08 11:31:39;;;;;;;;;;;4.60;99.90;;;;;;5002715;28;20157;-71
2022/01/08 11:34:10;;;;;;;;;;;4.60;99.90;;;;;;4995396;28;20158;-70
2022/01/08 11:36:38;;;;;;;;;;;4.60;99.90;;;;;;4998241;28;20068;-71
2022/01/08 11:39:09;;;;;;;;;;;4.60;99.90;;;;;;4997795;28;20068;-70
2022/01/08 11:41:37;;;;;;;;;;;4.50;99.90;;;;;;5002678;28;20133;-71
2022/01/08 11:44:04;;;;;;;;;;;4.50;99.90;;;;;;4998788;28;20153;-70
2022/01/08 11:46:34;;;;;;;;;;;4.50;99.90;;;;;;4999323;28;20077;-71
2022/01/08 11:49:02;;;;;;;;;;;4.50;99.90;;;;;;5001783;28;20060;-71
2022/01/08 11:51:31;;;;;;;;;;;4.60;99.90;;;;;;5004713;28;21416;-70
2022/01/08 11:53:59;;;;;;;;;;;4.60;99.90;;;;;;5002367;28;20084;-71
2022/01/08 11:56:29;;;;;;;;;;;4.60;99.90;;;;;;5002341;28;20068;-71
2022/01/08 11:59:03;;;;;;;;;;;4.50;99.90;;;;;;5004170;28;20178;-71
2022/01/08 12:01:30;;;;;;;;;;;4.50;99.90;;;;;;5005626;28;20077;-71
2022/01/08 12:03:58;;;;;;;;;;;4.50;99.90;;;;;;4998711;28;20157;-71
2022/01/08 12:06:33;;;;;;;;;;;4.40;99.90;;;;;;5004774;28;20064;-71
2022/01/08 12:09:07;;;;;;;;;;;4.40;99.90;;;;;;5001794;28;20196;-70
2022/01/08 12:11:49;;;;;;;;;;;4.40;99.90;;;;;;5009122;28;20069;-72
2022/01/08 12:14:17;;;;;;;;;;;4.40;99.90;;;;;;5004732;28;20075;-71
2022/01/08 12:16:45;;;;;;;;;;;4.40;99.90;;;;;;5004699;28;21117;-71
2022/01/08 12:19:29;;;;;;;;;;;4.40;99.90;;;;;;4997656;28;20077;-71
2022/01/08 12:21:56;;;;;;;;;;;4.40;99.90;;;;;;4992869;28;20074;-71
2022/01/08 12:24:36;;;;;;;;;;;4.50;99.90;;;;;;5005080;28;20060;-71
2022/01/08 12:27:21;;;;;;;;;;;4.50;99.90;;;;;;5004246;28;20195;-71
2022/01/08 12:29:48;;;;;;;;;;;4.60;99.90;;;;;;4996652;28;20068;-69
2022/01/08 12:32:31;;;;;;;;;;;4.60;99.90;;;;;;4996988;28;20358;-71
2022/01/08 12:35:10;;;;;;;;;;;4.60;99.90;;;;;;4998341;28;20099;-70
2022/01/08 12:37:38;;;;;;;;;;;4.60;99.90;;;;;;5001899;28;20069;-71
2022/01/08 12:40:07;;;;;;;;;;;4.60;99.90;;;;;;4998667;28;20107;-70
2022/01/08 12:42:43;;;;;;;;;;;4.60;99.90;;;;;;5003148;28;20060;-70
2022/01/08 12:45:12;;;;;;;;;;;4.70;99.90;;;;;;4999258;28;20052;-71
2022/01/08 12:47:50;;;;;;;;;;;4.70;99.90;;;;;;5020806;28;20069;-71
2022/01/08 12:50:18;;;;;;;;;;;4.70;99.90;;;;;;5004024;28;20530;-71
2022/01/08 12:53:00;;;;;;;;;;;4.70;99.90;;;;;;5003032;28;20087;-71
2022/01/08 12:55:27;;;;;;;;;;;4.70;99.90;;;;;;5016566;28;21140;-71
2022/01/08 12:57:56;;;;;;;;;;;4.70;99.90;;;;;;5003610;28;20084;-71
2022/01/08 13:00:23;;;;;;;;;;;4.70;99.90;;;;;;4998564;28;20161;-75
2022/01/08 13:02:51;;;;;;;;;;;4.70;99.90;;;;;;5004139;28;20069;-69
2022/01/08 13:05:19;;;;;;;;;;;4.70;99.90;;;;;;5005785;28;20087;-70
2022/01/08 13:07:49;;;;;;;;;;;4.60;99.90;;;;;;4998483;28;21160;-71
2022/01/08 13:10:17;;;;;;;;;;;4.60;99.90;;;;;;5003399;28;20076;-71
2022/01/08 13:12:44;;;;;;;;;;;4.60;99.90;;;;;;5005342;28;20068;-71
2022/01/08 13:15:13;;;;;;;;;;;4.60;99.90;;;;;;5004560;28;20158;-71
2022/01/08 13:17:40;;;;;;;;;;;4.60;99.90;;;;;;4996307;28;20059;-71
2022/01/08 13:20:08;;;;;;;;;;;4.50;99.90;;;;;;5011699;28;20199;-72
2022/01/08 13:22:35;;;;;;;;;;;4.50;99.90;;;;;;5002256;28;20060;-73
2022/01/08 13:25:02;;;;;;;;;;;4.50;99.90;;;;;;5004296;28;20059;-73
2022/01/08 13:27:29;;;;;;;;;;;4.50;99.90;;;;;;4998623;28;20084;-73
2022/01/08 13:29:57;;;;;;;;;;;4.50;99.90;;;;;;5004059;28;21084;-72
2022/01/08 13:32:26;;;;;;;;;;;4.50;99.90;;;;;;5003443;28;21300;-72
2022/01/08 13:34:56;;;;;;;;;;;4.40;99.90;;;;;;5011856;28;21210;-72
2022/01/08 13:37:24;;;;;;;;;;;4.40;99.90;;;;;;4995753;28;20064;-73
2022/01/08 13:39:55;;;;;;;;;;;4.40;99.90;;;;;;5002808;28;21218;-73
2022/01/08 13:42:23;;;;;;;;;;;4.40;99.90;;;;;;5003541;28;20233;-73
2022/01/08 13:44:51;;;;;;;;;;;4.30;99.90;;;;;;4996062;28;20059;-73
2022/01/08 13:47:31;;;;;;;;;;;4.30;99.90;;;;;;5003161;28;20083;-72
2022/01/08 13:49:59;;;;;;;;;;;4.30;99.90;;;;;;5003633;28;20171;-73
2022/01/08 13:52:35;;;;;;;;;;;4.30;99.90;;;;;;5003352;28;20084;-73
2022/01/08 13:55:13;;;;;;;;;;;4.30;99.90;;;;;;4995994;28;20075;-72
2022/01/08 13:57:40;;;;;;;;;;;4.30;99.90;;;;;;5019397;28;20060;-73
2022/01/08 14:00:11;;;;;;;;;;;4.30;99.90;;;;;;5002608;28;20169;-73
2022/01/08 14:02:40;;;;;;;;;;;4.20;99.90;;;;;;5005763;28;20075;-73
2022/01/08 14:05:08;;;;;;;;;;;4.20;99.90;;;;;;5020024;28;20140;-73
2022/01/08 14:07:36;;;;;;;;;;;4.20;99.90;;;;;;5003360;28;20060;-73
2022/01/08 14:10:03;;;;;;;;;;;4.20;99.90;;;;;;5002713;28;20164;-77
2022/01/08 14:12:30;;;;;;;;;;;4.20;99.90;;;;;;5002368;28;20068;-72
2022/01/08 14:15:03;;;;;;;;;;;4.20;99.90;;;;;;4999158;28;20060;-81
2022/01/08 14:17:31;;;;;;;;;;;4.10;99.90;;;;;;4993997;28;20182;-73
2022/01/08 14:20:00;;;;;;;;;;;4.10;99.90;;;;;;5001761;28;20158;-72
2022/01/08 14:22:28;;;;;;;;;;;4.10;99.90;;;;;;5002688;28;20091;-73
2022/01/08 14:24:55;;;;;;;;;;;4.10;99.90;;;;;;5001003;28;20075;-70
2022/01/08 14:27:24;;;;;;;;;;;4.10;99.90;;;;;;4992429;28;20089;-73
2022/01/08 14:30:08;;;;;;;;;;;4.10;99.90;;;;;;5000817;28;21283;-73
2022/01/08 14:32:35;;;;;;;;;;;4.10;99.90;;;;;;5001708;28;21218;-72
2022/01/08 14:35:04;;;;;;;;;;;4.10;99.90;;;;;;5002211;28;21171;-73
2022/01/08 14:37:33;;;;;;;;;;;4.10;99.90;;;;;;5002476;28;20077;-73
2022/01/08 14:40:16;;;;;;;;;;;4.10;99.90;;;;;;5000794;28;20077;-72
2022/01/08 14:42:43;;;;;;;;;;;4.10;99.90;;;;;;5001298;28;20162;-71
2022/01/08 14:45:17;;;;;;;;;;;4.10;99.90;;;;;;4999224;28;21120;-72
2022/01/08 14:47:44;;;;;;;;;;;4.10;99.90;;;;;;4992229;28;20116;-73
2022/01/08 14:50:13;;;;;;;;;;;4.10;99.90;;;;;;5003234;28;20141;-71
2022/01/08 14:52:41;;;;;;;;;;;4.20;99.90;;;;;;5001170;28;20078;-72
2022/01/08 14:55:09;;;;;;;;;;;4.30;99.90;;;;;;5002373;28;20077;-72
2022/01/08 14:57:36;;;;;;;;;;;4.30;99.90;;;;;;5002628;28;20059;-73